createdAt,value
2019-03-25T00:03:12.407Z,101129.35
2019-03-25T00:07:15.964Z,101126.55
2019-03-25T00:11:19.843Z,101110.30
2019-03-25T00:15:23.630Z,101111.23
2019-03-25T00:19:27.261Z,101102.83
2019-03-25T00:23:30.870Z,101088.77
2019-03-25T00:27:34.477Z,101083.37
2019-03-25T00:31:38.194Z,101067.25
2019-03-25T00:35:41.800Z,101052.95
2019-03-25T00:39:45.346Z,101040.80
2019-03-25T00:43:48.930Z,101010.52
2019-03-25T00:47:52.495Z,101010.52
2019-03-25T00:51:56.040Z,101002.05
2019-03-25T00:55:59.663Z,101005.36
2019-03-25T01:00:03.584Z,100998.88
2019-03-25T01:04:07.405Z,100985.52
2019-03-25T01:08:11.017Z,100973.33
2019-03-25T01:12:15.039Z,100960.07
2019-03-25T01:16:18.754Z,100950.69
2019-03-25T01:20:22.516Z,100936.52
2019-03-25T01:24:27.947Z,100931.96
2019-03-25T01:28:32.151Z,100921.71
2019-03-25T01:32:36.400Z,100923.80
2019-03-25T01:36:40.103Z,100911.78
2019-03-25T01:40:43.718Z,100903.41
2019-03-25T01:44:47.330Z,100885.73
2019-03-25T01:48:50.945Z,100872.09
2019-03-25T01:52:54.490Z,100865.28
2019-03-25T01:56:58.178Z,100857.94
2019-03-25T02:01:01.787Z,100855.55
2019-03-25T02:05:06.900Z,100839.81
2019-03-25T02:09:10.550Z,100838.23
2019-03-25T02:13:14.164Z,100838.02
2019-03-25T02:17:17.880Z,100827.82
2019-03-25T02:21:21.504Z,100819.66
2019-03-25T02:25:25.944Z,100805.20
2019-03-25T02:29:29.746Z,100795.30
2019-03-25T02:33:33.565Z,100787.97
2019-03-25T02:37:37.177Z,100780.48
2019-03-25T02:41:40.793Z,100771.04
2019-03-25T02:45:44.410Z,100777.62
2019-03-25T02:49:48.017Z,100758.61
2019-03-25T02:53:51.559Z,100767.66
2019-03-25T02:57:55.150Z,100769.47
2019-03-25T03:01:58.861Z,100769.23
2019-03-25T03:06:02.582Z,100770.88
2019-03-25T03:10:07.585Z,100765.54
2019-03-25T03:14:14.893Z,100772.85
2019-03-25T03:18:16.490Z,100772.69
2019-03-25T03:22:20.205Z,100773.00
2019-03-25T03:26:23.925Z,100773.00
2019-03-25T03:30:27.754Z,100777.88
2019-03-25T03:34:31.276Z,100779.99
2019-03-25T03:38:34.871Z,100779.86
2019-03-25T03:42:38.680Z,100778.66
2019-03-25T03:46:42.312Z,100760.45
2019-03-25T03:50:46.015Z,100753.62
2019-03-25T03:54:50.384Z,100742.38
2019-03-25T03:58:54.265Z,100734.66
2019-03-25T04:02:57.927Z,100737.84
2019-03-25T04:07:01.518Z,100743.95
2019-03-25T04:11:05.212Z,100728.98
2019-03-25T04:15:09.176Z,100722.09
2019-03-25T04:19:12.751Z,100730.31
2019-03-25T04:23:16.368Z,100726.14
2019-03-25T04:27:21.611Z,100716.48
2019-03-25T04:31:25.324Z,100710.21
2019-03-25T04:35:29.042Z,100700.23
2019-03-25T04:39:32.666Z,100709.52
2019-03-25T04:43:36.188Z,100711.30
2019-03-25T04:47:39.788Z,100719.30
2019-03-25T04:51:44.852Z,100734.79
2019-03-25T04:55:48.748Z,100739.94
2019-03-25T04:59:52.360Z,100734.93
2019-03-25T05:03:55.975Z,100722.75
2019-03-25T05:07:59.691Z,100722.22
2019-03-25T05:12:03.414Z,100726.98
2019-03-25T05:16:07.019Z,100721.28
2019-03-25T05:20:10.737Z,100722.89
2019-03-25T05:24:14.978Z,100721.95
2019-03-25T05:28:18.690Z,100718.55
2019-03-25T05:32:22.401Z,100712.06
2019-03-25T05:36:26.014Z,100711.47
2019-03-25T05:40:29.631Z,100698.33
2019-03-25T05:44:33.239Z,100699.87
2019-03-25T05:48:36.858Z,100703.09
2019-03-25T05:52:40.576Z,100705.09
2019-03-25T05:56:44.394Z,100703.88
2019-03-25T06:00:48.107Z,100705.86
2019-03-25T06:04:51.722Z,100704.02
2019-03-25T06:08:55.335Z,100705.80
2019-03-25T06:12:59.058Z,100708.88
2019-03-25T06:17:02.666Z,100712.17
2019-03-25T06:21:06.386Z,100712.47
2019-03-25T06:25:10.259Z,100708.72
2019-03-25T06:29:13.921Z,100711.66
2019-03-25T06:33:17.627Z,100712.86
2019-03-25T06:37:21.244Z,100714.92
2019-03-25T06:41:24.960Z,100712.48
2019-03-25T06:45:28.577Z,100725.52
2019-03-25T06:49:32.187Z,100726.77
2019-03-25T06:53:35.912Z,100716.32
2019-03-25T06:57:39.829Z,100711.18
2019-03-25T07:01:43.540Z,100710.48
2019-03-25T07:05:47.153Z,100716.09
2019-03-25T07:09:50.879Z,100706.17
2019-03-25T07:13:55.204Z,100708.67
2019-03-25T07:17:59.937Z,100709.03
2019-03-25T07:22:03.559Z,100706.28
2019-03-25T07:26:07.277Z,100695.00
2019-03-25T07:30:11.670Z,100701.62
2019-03-25T07:34:15.471Z,100710.67
2019-03-25T07:38:19.139Z,100719.35
2019-03-25T07:42:22.751Z,100721.27
2019-03-25T07:46:26.367Z,100718.68
2019-03-25T07:50:30.082Z,100731.22
2019-03-25T07:54:33.818Z,100742.66
2019-03-25T07:58:37.365Z,100743.89
2019-03-25T08:02:41.050Z,100741.46
2019-03-25T08:06:44.742Z,100739.80
2019-03-25T08:10:48.717Z,100741.17
2019-03-25T08:14:52.295Z,100740.43
2019-03-25T08:18:55.990Z,100743.30
2019-03-25T08:22:59.708Z,100742.54
2019-03-25T08:27:03.427Z,100736.23
2019-03-25T08:31:07.140Z,100734.70
2019-03-25T08:35:11.311Z,100742.48
2019-03-25T08:39:15.209Z,100745.83
2019-03-25T08:43:19.057Z,100754.36
2019-03-25T08:47:22.625Z,100765.42
2019-03-25T08:51:26.577Z,100774.42
2019-03-25T08:55:30.258Z,100784.16
2019-03-25T08:59:33.978Z,100778.81
2019-03-25T09:03:38.050Z,100786.69
2019-03-25T09:07:41.752Z,100786.16
2019-03-25T09:11:45.776Z,100785.48
2019-03-25T09:15:49.314Z,100786.56
2019-03-25T09:19:53.076Z,100793.55
2019-03-25T09:23:57.296Z,100794.88
2019-03-25T09:28:01.217Z,100796.70
2019-03-25T09:32:04.933Z,100801.58
2019-03-25T09:36:08.765Z,100805.88
2019-03-25T09:40:12.677Z,100803.70
2019-03-25T09:44:16.301Z,100800.99
2019-03-25T09:48:20.233Z,100801.81
2019-03-25T09:52:23.992Z,100808.76
2019-03-25T09:56:27.778Z,100803.58
2019-03-25T10:00:32.736Z,100799.14
2019-03-25T10:04:36.403Z,100807.77
2019-03-25T10:08:40.022Z,100814.75
2019-03-25T10:12:43.739Z,100828.05
2019-03-25T10:16:47.368Z,100833.98
2019-03-25T10:20:50.960Z,100835.39
2019-03-25T10:24:54.579Z,100854.68
2019-03-25T10:28:58.303Z,100855.06
2019-03-25T10:33:01.903Z,100871.13
2019-03-25T10:37:06.057Z,100882.00
2019-03-25T10:41:09.862Z,100890.66
2019-03-25T10:45:14.591Z,100906.03
2019-03-25T10:49:18.304Z,100908.93
2019-03-25T10:53:21.987Z,100903.23
2019-03-25T10:57:25.637Z,100914.78
2019-03-25T11:01:29.451Z,100921.08
2019-03-25T11:05:33.169Z,100914.16
2019-03-25T11:09:36.892Z,100908.59
2019-03-25T11:13:41.839Z,100907.63
2019-03-25T11:17:45.555Z,100901.81
2019-03-25T11:21:49.268Z,100907.79
2019-03-25T11:25:52.981Z,100915.48
2019-03-25T11:29:56.600Z,100935.03
2019-03-25T11:34:00.309Z,100939.69
2019-03-25T11:38:03.922Z,100950.88
2019-03-25T11:42:10.183Z,100955.52
2019-03-25T11:46:13.329Z,100958.73
2019-03-25T11:50:17.120Z,100958.32
2019-03-25T11:54:20.839Z,100959.69
2019-03-25T11:58:24.450Z,100972.22
2019-03-25T12:02:28.166Z,100974.69
2019-03-25T12:06:31.885Z,100973.52
2019-03-25T12:10:35.582Z,100965.62
2019-03-25T12:14:39.211Z,100958.43
2019-03-25T12:18:42.827Z,100958.31
2019-03-25T12:22:46.552Z,100955.11
2019-03-25T12:26:50.260Z,100964.06
2019-03-25T12:30:53.912Z,100954.98
2019-03-25T12:34:57.598Z,100957.11
2019-03-25T12:39:01.134Z,100969.55
2019-03-25T12:43:04.921Z,100965.73
2019-03-25T12:47:08.532Z,100972.66
2019-03-25T12:51:12.249Z,100993.55
2019-03-25T12:55:15.867Z,101014.55
2019-03-25T12:59:19.487Z,101017.36
2019-03-25T13:03:23.192Z,101024.08
2019-03-25T13:07:26.812Z,101014.13
2019-03-25T13:11:30.425Z,101008.26
2019-03-25T13:15:34.139Z,101009.92
2019-03-25T13:19:37.748Z,101016.31
2019-03-25T13:23:41.364Z,101027.47
2019-03-25T13:27:45.015Z,101020.40
2019-03-25T13:31:48.589Z,101022.59
2019-03-25T13:35:52.616Z,101033.03
2019-03-25T13:39:56.235Z,101040.11
2019-03-25T13:43:59.846Z,101046.55
2019-03-25T13:48:03.421Z,101041.56
2019-03-25T13:52:07.073Z,101048.34
2019-03-25T13:56:11.916Z,101043.14
2019-03-25T14:00:16.096Z,101041.03
2019-03-25T14:04:19.772Z,101059.95
2019-03-25T14:08:23.378Z,101059.61
2019-03-25T14:12:26.986Z,101057.69
2019-03-25T14:16:30.546Z,101057.81
2019-03-25T14:20:34.222Z,101064.80
2019-03-25T14:24:38.237Z,101066.52
2019-03-25T14:28:42.220Z,101070.09
2019-03-25T14:32:45.990Z,101079.47
2019-03-25T14:36:49.592Z,101094.48
2019-03-25T14:40:53.199Z,101120.53
2019-03-25T14:44:56.919Z,101125.17
2019-03-25T14:49:00.739Z,101119.28
2019-03-25T14:53:04.459Z,101119.84
2019-03-25T14:57:08.403Z,101124.69
2019-03-25T15:01:12.674Z,101134.20
2019-03-25T15:05:16.551Z,101139.05
2019-03-25T15:09:20.154Z,101154.10
2019-03-25T15:13:23.959Z,101155.20
2019-03-25T15:17:27.683Z,101157.48
2019-03-25T15:21:31.288Z,101170.00
2019-03-25T15:25:35.554Z,101189.97
2019-03-25T15:29:39.436Z,101193.01
2019-03-25T15:33:43.592Z,101203.52
2019-03-25T15:37:47.431Z,101214.51
2019-03-25T15:41:51.204Z,101222.12
2019-03-25T15:45:55.270Z,101227.62
2019-03-25T15:49:59.871Z,101241.72
2019-03-25T15:54:03.883Z,101244.80
2019-03-25T15:58:07.814Z,101258.26
2019-03-25T16:02:11.491Z,101264.02
2019-03-25T16:06:15.149Z,101269.48
2019-03-25T16:10:18.956Z,101272.30
2019-03-25T16:14:22.780Z,101277.98
2019-03-25T16:18:38.179Z,101288.45
2019-03-25T16:22:41.761Z,101296.03
2019-03-25T16:26:45.611Z,101304.51
2019-03-25T16:30:58.256Z,101310.72
2019-03-25T16:34:55.002Z,101329.66
2019-03-25T16:38:58.594Z,101337.77
2019-03-25T16:43:02.353Z,101343.67
2019-03-25T16:47:06.156Z,101350.97
2019-03-25T16:51:09.757Z,101354.05
2019-03-25T16:55:13.569Z,101362.41
2019-03-25T16:59:17.334Z,101373.77
2019-03-25T17:03:20.994Z,101386.41
2019-03-25T17:07:25.629Z,101393.25
2019-03-25T17:11:29.244Z,101398.74
2019-03-25T17:15:34.085Z,101405.59
2019-03-25T17:19:37.704Z,101415.36
2019-03-25T17:23:41.418Z,101422.96
2019-03-25T17:27:45.031Z,101432.14
2019-03-25T17:31:48.645Z,101443.80
2019-03-25T17:35:52.270Z,101445.00
2019-03-25T17:39:55.824Z,101460.64
2019-03-25T17:43:59.483Z,101470.56
2019-03-25T17:48:03.116Z,101483.56
2019-03-25T17:52:06.718Z,101492.44
2019-03-25T17:56:10.330Z,101501.31
2019-03-25T18:00:14.842Z,101516.96
2019-03-25T18:04:18.476Z,101527.17
2019-03-25T18:08:22.096Z,101530.70
2019-03-25T18:12:25.708Z,101539.57
2019-03-25T18:16:29.425Z,101545.03
2019-03-25T18:20:33.039Z,101551.56
2019-03-25T18:24:36.756Z,101567.00
2019-03-25T18:28:40.367Z,101570.73
2019-03-25T18:32:43.982Z,101582.68
2019-03-25T18:36:47.593Z,101592.19
2019-03-25T18:40:51.207Z,101607.14
2019-03-25T18:44:54.923Z,101615.78
2019-03-25T18:48:58.539Z,101624.14
2019-03-25T18:53:02.373Z,101633.54
2019-03-25T18:57:06.073Z,101640.69
2019-03-25T19:01:09.775Z,101645.03
2019-03-25T19:05:13.516Z,101653.83
2019-03-25T19:09:21.372Z,101662.97
2019-03-25T19:13:24.944Z,101665.84
2019-03-25T19:17:28.557Z,101666.79
2019-03-25T19:21:32.091Z,101678.84
2019-03-25T19:25:35.782Z,101682.73
2019-03-25T19:29:39.394Z,101689.95
2019-03-25T19:33:43.003Z,101696.51
2019-03-25T19:37:46.724Z,101694.05
2019-03-25T19:41:51.222Z,101701.91
2019-03-25T19:45:54.876Z,101712.20
2019-03-25T19:49:58.526Z,101724.19
2019-03-25T19:54:02.097Z,101732.72
2019-03-25T19:58:06.886Z,101745.08
2019-03-25T20:02:19.090Z,101740.31
2019-03-25T20:06:25.750Z,101752.89
2019-03-25T20:10:32.605Z,101764.84
2019-03-25T20:14:36.239Z,101772.89
2019-03-25T20:18:39.870Z,101780.95
2019-03-25T20:22:43.694Z,101789.58
2019-03-25T20:26:47.287Z,101806.13
2019-03-25T20:30:51.018Z,101810.63
2019-03-25T20:34:54.642Z,101820.84
2019-03-25T20:38:58.232Z,101823.31
2019-03-25T20:43:01.783Z,101815.95
2019-03-25T20:47:05.518Z,101828.25
2019-03-25T20:51:09.173Z,101824.25
2019-03-25T20:55:12.791Z,101828.81
2019-03-25T20:59:16.610Z,101834.15
2019-03-25T21:03:20.454Z,101834.40
2019-03-25T21:07:24.067Z,101840.16
2019-03-25T21:11:27.679Z,101837.39
2019-03-25T21:15:32.328Z,101851.20
2019-03-25T21:19:35.905Z,101848.66
2019-03-25T21:23:39.555Z,101848.82
2019-03-25T21:27:43.139Z,101855.61
2019-03-25T21:31:46.806Z,101862.38
2019-03-25T21:35:50.565Z,101865.77
2019-03-25T21:39:54.192Z,101876.86
2019-03-25T21:43:57.805Z,101877.30
2019-03-25T21:48:01.414Z,101879.69
2019-03-25T21:52:05.163Z,101890.14
2019-03-25T21:56:08.833Z,101891.70
2019-03-25T22:00:13.170Z,101890.34
2019-03-25T22:04:16.886Z,101894.56
2019-03-25T22:08:20.501Z,101894.31
2019-03-25T22:12:24.159Z,101897.62
2019-03-25T22:16:27.733Z,101906.72
2019-03-25T22:20:31.434Z,101907.73
2019-03-25T22:24:35.057Z,101912.15
2019-03-25T22:28:38.621Z,101917.66
2019-03-25T22:32:42.285Z,101916.19
2019-03-25T22:36:45.949Z,101915.58
2019-03-25T22:40:49.536Z,101905.56
2019-03-25T22:44:53.230Z,101919.72
2019-03-25T22:48:56.953Z,101939.77
2019-03-25T22:53:00.855Z,101939.72
2019-03-25T22:57:04.482Z,101946.00
2019-03-25T23:01:08.277Z,101935.25
2019-03-25T23:05:12.115Z,101943.48
2019-03-25T23:09:15.836Z,101936.12
2019-03-25T23:13:19.447Z,101933.91
2019-03-25T23:17:23.061Z,101932.59
2019-03-25T23:21:26.674Z,101935.75
2019-03-25T23:25:30.397Z,101932.45
2019-03-25T23:29:34.031Z,101923.52
2019-03-25T23:33:37.721Z,101921.92
2019-03-25T23:37:41.336Z,101928.60
2019-03-25T23:41:44.876Z,101925.89
2019-03-25T23:45:48.457Z,101942.43
2019-03-25T23:49:52.180Z,101950.95
2019-03-25T23:53:57.426Z,101943.56
2019-03-25T23:58:01.040Z,101940.22
